sensor_id;sensor_type;location;lat;lon;timestamp;P1;durP1;ratioP1;P2;durP2;ratioP2
7031;SDS011;3557;48.880;8.328;2023-04-08T00:02:15;8.68;;;6.55;;
7031;SDS011;3557;48.880;8.328;2023-04-08T00:04:43;8.00;;;6.82;;
7031;SDS011;3557;48.880;8.328;2023-04-08T00:07:10;9.10;;;7.13;;
7031;SDS011;3557;48.880;8.328;2023-04-08T00:09:39;8.27;;;7.13;;
7031;SDS011;3557;48.880;8.328;2023-04-08T00:12:06;8.45;;;6.70;;
7031;SDS011;3557;48.880;8.328;2023-04-08T00:14:33;10.73;;;6.93;;
7031;SDS011;3557;48.880;8.328;2023-04-08T00:17:02;8.85;;;7.28;;
7031;SDS011;3557;48.880;8.328;2023-04-08T00:19:29;7.93;;;7.13;;
7031;SDS011;3557;48.880;8.328;2023-04-08T00:21:57;9.50;;;6.97;;
7031;SDS011;3557;48.880;8.328;2023-04-08T00:24:24;10.02;;;7.57;;
7031;SDS011;3557;48.880;8.328;2023-04-08T00:26:53;8.77;;;6.80;;
7031;SDS011;3557;48.880;8.328;2023-04-08T00:29:21;12.45;;;7.30;;
7031;SDS011;3557;48.880;8.328;2023-04-08T00:31:48;8.20;;;7.25;;
7031;SDS011;3557;48.880;8.328;2023-04-08T00:34:16;10.02;;;7.50;;
7031;SDS011;3557;48.880;8.328;2023-04-08T00:36:44;9.77;;;8.00;;
7031;SDS011;3557;48.880;8.328;2023-04-08T00:39:12;8.25;;;7.10;;
7031;SDS011;3557;48.880;8.328;2023-04-08T00:41:39;8.60;;;7.38;;
7031;SDS011;3557;48.880;8.328;2023-04-08T00:44:08;9.30;;;8.25;;
7031;SDS011;3557;48.880;8.328;2023-04-08T00:46:37;9.88;;;7.70;;
7031;SDS011;3557;48.880;8.328;2023-04-08T00:49:06;9.48;;;7.28;;
7031;SDS011;3557;48.880;8.328;2023-04-08T00:51:34;8.48;;;7.60;;
7031;SDS011;3557;48.880;8.328;2023-04-08T00:54:01;8.82;;;7.43;;
7031;SDS011;3557;48.880;8.328;2023-04-08T00:56:29;10.02;;;7.72;;
7031;SDS011;3557;48.880;8.328;2023-04-08T00:58:58;9.18;;;7.85;;
7031;SDS011;3557;48.880;8.328;2023-04-08T01:01:30;8.52;;;7.47;;
7031;SDS011;3557;48.880;8.328;2023-04-08T01:04:04;8.25;;;7.32;;
7031;SDS011;3557;48.880;8.328;2023-04-08T01:06:37;10.98;;;8.38;;
7031;SDS011;3557;48.880;8.328;2023-04-08T01:09:11;12.23;;;7.55;;
7031;SDS011;3557;48.880;8.328;2023-04-08T01:11:41;9.68;;;8.05;;
7031;SDS011;3557;48.880;8.328;2023-04-08T01:14:10;10.32;;;8.00;;
7031;SDS011;3557;48.880;8.328;2023-04-08T01:16:42;8.90;;;8.00;;
7031;SDS011;3557;48.880;8.328;2023-04-08T01:19:12;10.63;;;8.55;;
7031;SDS011;3557;48.880;8.328;2023-04-08T01:21:46;11.07;;;8.70;;
7031;SDS011;3557;48.880;8.328;2023-04-08T01:24:17;11.43;;;9.02;;
7031;SDS011;3557;48.880;8.328;2023-04-08T01:26:52;10.40;;;8.20;;
7031;SDS011;3557;48.880;8.328;2023-04-08T01:29:20;11.10;;;8.65;;
7031;SDS011;3557;48.880;8.328;2023-04-08T01:31:48;10.45;;;8.35;;
7031;SDS011;3557;48.880;8.328;2023-04-08T01:34:17;10.55;;;8.68;;
7031;SDS011;3557;48.880;8.328;2023-04-08T01:36:46;11.57;;;9.23;;
7031;SDS011;3557;48.880;8.328;2023-04-08T01:39:15;11.27;;;9.00;;
7031;SDS011;3557;48.880;8.328;2023-04-08T01:41:45;12.80;;;9.73;;
7031;SDS011;3557;48.880;8.328;2023-04-08T01:44:14;13.75;;;8.88;;
7031;SDS011;3557;48.880;8.328;2023-04-08T01:46:43;13.10;;;9.55;;
7031;SDS011;3557;48.880;8.328;2023-04-08T01:49:11;12.13;;;8.95;;
7031;SDS011;3557;48.880;8.328;2023-04-08T01:51:38;11.85;;;9.30;;
7031;SDS011;3557;48.880;8.328;2023-04-08T01:54:05;12.25;;;9.63;;
7031;SDS011;3557;48.880;8.328;2023-04-08T01:56:35;11.65;;;9.43;;
7031;SDS011;3557;48.880;8.328;2023-04-08T01:59:05;11.38;;;8.88;;
7031;SDS011;3557;48.880;8.328;2023-04-08T02:01:38;13.32;;;9.68;;
7031;SDS011;3557;48.880;8.328;2023-04-08T02:04:05;11.40;;;9.45;;
7031;SDS011;3557;48.880;8.328;2023-04-08T02:06:33;11.32;;;9.02;;
7031;SDS011;3557;48.880;8.328;2023-04-08T02:09:00;11.40;;;9.05;;
7031;SDS011;3557;48.880;8.328;2023-04-08T02:11:28;10.85;;;8.93;;
7031;SDS011;3557;48.880;8.328;2023-04-08T02:13:56;11.77;;;8.93;;
7031;SDS011;3557;48.880;8.328;2023-04-08T02:16:25;13.10;;;9.70;;
7031;SDS011;3557;48.880;8.328;2023-04-08T02:18:59;15.60;;;9.65;;
7031;SDS011;3557;48.880;8.328;2023-04-08T02:21:33;12.73;;;9.32;;
7031;SDS011;3557;48.880;8.328;2023-04-08T02:24:08;12.90;;;9.10;;
7031;SDS011;3557;48.880;8.328;2023-04-08T02:26:39;10.85;;;9.07;;
7031;SDS011;3557;48.880;8.328;2023-04-08T02:29:10;13.55;;;9.52;;
7031;SDS011;3557;48.880;8.328;2023-04-08T02:31:39;11.30;;;9.50;;
7031;SDS011;3557;48.880;8.328;2023-04-08T02:34:09;14.00;;;9.80;;
7031;SDS011;3557;48.880;8.328;2023-04-08T02:36:37;11.88;;;9.73;;
7031;SDS011;3557;48.880;8.328;2023-04-08T02:39:05;11.45;;;9.13;;
7031;SDS011;3557;48.880;8.328;2023-04-08T02:41:33;12.52;;;10.13;;
7031;SDS011;3557;48.880;8.328;2023-04-08T02:44:00;11.55;;;9.35;;
7031;SDS011;3557;48.880;8.328;2023-04-08T02:46:29;13.10;;;9.82;;
7031;SDS011;3557;48.880;8.328;2023-04-08T02:48:56;12.52;;;9.60;;
7031;SDS011;3557;48.880;8.328;2023-04-08T02:51:25;10.85;;;9.68;;
7031;SDS011;3557;48.880;8.328;2023-04-08T02:53:52;14.88;;;9.73;;
7031;SDS011;3557;48.880;8.328;2023-04-08T02:56:19;15.25;;;9.80;;
7031;SDS011;3557;48.880;8.328;2023-04-08T02:58:47;12.57;;;9.52;;
7031;SDS011;3557;48.880;8.328;2023-04-08T03:01:16;13.10;;;9.57;;
7031;SDS011;3557;48.880;8.328;2023-04-08T03:03:43;11.40;;;9.75;;
7031;SDS011;3557;48.880;8.328;2023-04-08T03:06:10;14.18;;;9.77;;
7031;SDS011;3557;48.880;8.328;2023-04-08T03:08:39;11.70;;;9.65;;
7031;SDS011;3557;48.880;8.328;2023-04-08T03:11:06;12.40;;;9.73;;
7031;SDS011;3557;48.880;8.328;2023-04-08T03:13:34;14.40;;;9.90;;
7031;SDS011;3557;48.880;8.328;2023-04-08T03:16:02;12.77;;;9.50;;
7031;SDS011;3557;48.880;8.328;2023-04-08T03:18:29;16.60;;;10.77;;
7031;SDS011;3557;48.880;8.328;2023-04-08T03:20:57;14.57;;;10.20;;
7031;SDS011;3557;48.880;8.328;2023-04-08T03:23:25;10.93;;;9.48;;
7031;SDS011;3557;48.880;8.328;2023-04-08T03:25:54;13.68;;;9.63;;
7031;SDS011;3557;48.880;8.328;2023-04-08T03:28:21;12.70;;;9.80;;
7031;SDS011;3557;48.880;8.328;2023-04-08T03:30:48;12.73;;;9.25;;
7031;SDS011;3557;48.880;8.328;2023-04-08T03:33:16;13.93;;;10.52;;
7031;SDS011;3557;48.880;8.328;2023-04-08T03:35:43;13.25;;;10.00;;
7031;SDS011;3557;48.880;8.328;2023-04-08T03:38:10;13.13;;;10.68;;
7031;SDS011;3557;48.880;8.328;2023-04-08T03:40:38;14.90;;;10.80;;
7031;SDS011;3557;48.880;8.328;2023-04-08T03:43:06;14.20;;;10.25;;
7031;SDS011;3557;48.880;8.328;2023-04-08T03:45:35;13.80;;;11.07;;
7031;SDS011;3557;48.880;8.328;2023-04-08T03:48:03;14.75;;;11.05;;
7031;SDS011;3557;48.880;8.328;2023-04-08T03:50:31;12.90;;;9.65;;
7031;SDS011;3557;48.880;8.328;2023-04-08T03:52:58;12.88;;;9.80;;
7031;SDS011;3557;48.880;8.328;2023-04-08T03:55:25;12.52;;;10.07;;
7031;SDS011;3557;48.880;8.328;2023-04-08T03:57:53;13.57;;;10.43;;
7031;SDS011;3557;48.880;8.328;2023-04-08T04:00:21;11.75;;;9.52;;
7031;SDS011;3557;48.880;8.328;2023-04-08T04:02:49;13.10;;;9.55;;
7031;SDS011;3557;48.880;8.328;2023-04-08T04:05:16;14.10;;;9.90;;
7031;SDS011;3557;48.880;8.328;2023-04-08T04:07:44;14.68;;;10.10;;
7031;SDS011;3557;48.880;8.328;2023-04-08T04:10:11;13.63;;;10.40;;
7031;SDS011;3557;48.880;8.328;2023-04-08T04:12:38;15.32;;;11.60;;
7031;SDS011;3557;48.880;8.328;2023-04-08T04:15:06;14.10;;;10.40;;
7031;SDS011;3557;48.880;8.328;2023-04-08T04:17:35;14.40;;;11.63;;
7031;SDS011;3557;48.880;8.328;2023-04-08T04:20:03;15.55;;;11.38;;
7031;SDS011;3557;48.880;8.328;2023-04-08T04:22:31;16.48;;;11.13;;
7031;SDS011;3557;48.880;8.328;2023-04-08T04:24:59;15.65;;;10.75;;
7031;SDS011;3557;48.880;8.328;2023-04-08T04:27:26;16.02;;;11.55;;
7031;SDS011;3557;48.880;8.328;2023-04-08T04:29:53;14.98;;;11.35;;
7031;SDS011;3557;48.880;8.328;2023-04-08T04:32:21;15.63;;;11.75;;
7031;SDS011;3557;48.880;8.328;2023-04-08T04:34:49;16.15;;;12.60;;
7031;SDS011;3557;48.880;8.328;2023-04-08T04:37:17;16.88;;;11.65;;
7031;SDS011;3557;48.880;8.328;2023-04-08T04:39:44;18.08;;;11.65;;
7031;SDS011;3557;48.880;8.328;2023-04-08T04:42:11;22.10;;;15.73;;
7031;SDS011;3557;48.880;8.328;2023-04-08T04:44:39;21.67;;;15.20;;
7031;SDS011;3557;48.880;8.328;2023-04-08T04:47:06;19.52;;;14.43;;
7031;SDS011;3557;48.880;8.328;2023-04-08T04:49:34;22.13;;;15.60;;
7031;SDS011;3557;48.880;8.328;2023-04-08T04:52:02;23.17;;;16.55;;
7031;SDS011;3557;48.880;8.328;2023-04-08T04:54:31;17.20;;;13.60;;
7031;SDS011;3557;48.880;8.328;2023-04-08T04:56:58;19.80;;;14.07;;
7031;SDS011;3557;48.880;8.328;2023-04-08T04:59:25;16.98;;;13.10;;
7031;SDS011;3557;48.880;8.328;2023-04-08T05:01:53;15.40;;;12.18;;
7031;SDS011;3557;48.880;8.328;2023-04-08T05:04:21;16.38;;;12.57;;
7031;SDS011;3557;48.880;8.328;2023-04-08T05:06:49;17.00;;;13.48;;
7031;SDS011;3557;48.880;8.328;2023-04-08T05:09:18;17.35;;;13.07;;
7031;SDS011;3557;48.880;8.328;2023-04-08T05:11:45;16.75;;;13.10;;
7031;SDS011;3557;48.880;8.328;2023-04-08T05:14:12;17.45;;;12.73;;
7031;SDS011;3557;48.880;8.328;2023-04-08T05:16:40;17.05;;;12.82;;
7031;SDS011;3557;48.880;8.328;2023-04-08T05:19:07;15.50;;;12.50;;
7031;SDS011;3557;48.880;8.328;2023-04-08T05:21:34;16.40;;;12.68;;
7031;SDS011;3557;48.880;8.328;2023-04-08T05:24:02;16.48;;;12.63;;
7031;SDS011;3557;48.880;8.328;2023-04-08T05:26:31;18.05;;;11.93;;
7031;SDS011;3557;48.880;8.328;2023-04-08T05:28:58;19.33;;;13.60;;
7031;SDS011;3557;48.880;8.328;2023-04-08T05:31:26;17.00;;;12.70;;
7031;SDS011;3557;48.880;8.328;2023-04-08T05:33:53;16.70;;;11.95;;
7031;SDS011;3557;48.880;8.328;2023-04-08T05:36:21;16.70;;;12.05;;
7031;SDS011;3557;48.880;8.328;2023-04-08T05:38:48;16.58;;;11.73;;
7031;SDS011;3557;48.880;8.328;2023-04-08T05:41:15;15.35;;;12.10;;
7031;SDS011;3557;48.880;8.328;2023-04-08T05:43:44;14.32;;;11.05;;
7031;SDS011;3557;48.880;8.328;2023-04-08T05:46:12;13.48;;;11.05;;
7031;SDS011;3557;48.880;8.328;2023-04-08T05:48:39;13.70;;;10.90;;
7031;SDS011;3557;48.880;8.328;2023-04-08T05:51:11;14.48;;;10.13;;
7031;SDS011;3557;48.880;8.328;2023-04-08T05:53:39;15.32;;;10.88;;
7031;SDS011;3557;48.880;8.328;2023-04-08T05:56:07;12.30;;;10.27;;
7031;SDS011;3557;48.880;8.328;2023-04-08T05:58:34;14.80;;;11.00;;
7031;SDS011;3557;48.880;8.328;2023-04-08T06:01:03;12.20;;;10.43;;
7031;SDS011;3557;48.880;8.328;2023-04-08T06:03:31;14.27;;;10.75;;
7031;SDS011;3557;48.880;8.328;2023-04-08T06:05:59;12.00;;;9.55;;
7031;SDS011;3557;48.880;8.328;2023-04-08T06:08:26;12.73;;;9.65;;
7031;SDS011;3557;48.880;8.328;2023-04-08T06:10:53;12.95;;;10.20;;
7031;SDS011;3557;48.880;8.328;2023-04-08T06:13:21;12.05;;;9.40;;
7031;SDS011;3557;48.880;8.328;2023-04-08T06:15:49;13.15;;;10.15;;
7031;SDS011;3557;48.880;8.328;2023-04-08T06:18:18;11.95;;;9.63;;
7031;SDS011;3557;48.880;8.328;2023-04-08T06:20:45;14.27;;;10.40;;
7031;SDS011;3557;48.880;8.328;2023-04-08T06:23:13;14.40;;;10.30;;
7031;SDS011;3557;48.880;8.328;2023-04-08T06:25:40;14.25;;;9.77;;
7031;SDS011;3557;48.880;8.328;2023-04-08T06:28:08;12.95;;;10.02;;
7031;SDS011;3557;48.880;8.328;2023-04-08T06:30:35;12.95;;;10.77;;
7031;SDS011;3557;48.880;8.328;2023-04-08T06:33:02;13.50;;;10.68;;
7031;SDS011;3557;48.880;8.328;2023-04-08T06:35:31;14.77;;;10.48;;
7031;SDS011;3557;48.880;8.328;2023-04-08T06:37:58;15.90;;;10.90;;
7031;SDS011;3557;48.880;8.328;2023-04-08T06:40:26;12.02;;;10.35;;
7031;SDS011;3557;48.880;8.328;2023-04-08T06:42:53;14.15;;;10.55;;
7031;SDS011;3557;48.880;8.328;2023-04-08T06:45:31;16.80;;;11.40;;
7031;SDS011;3557;48.880;8.328;2023-04-08T06:47:59;13.98;;;11.77;;
7031;SDS011;3557;48.880;8.328;2023-04-08T06:50:27;15.23;;;10.60;;
7031;SDS011;3557;48.880;8.328;2023-04-08T06:52:56;16.75;;;11.32;;
7031;SDS011;3557;48.880;8.328;2023-04-08T06:55:24;16.25;;;10.20;;
7031;SDS011;3557;48.880;8.328;2023-04-08T06:57:51;14.57;;;10.75;;
7031;SDS011;3557;48.880;8.328;2023-04-08T07:00:19;15.15;;;11.50;;
7031;SDS011;3557;48.880;8.328;2023-04-08T07:02:46;14.75;;;11.07;;
7031;SDS011;3557;48.880;8.328;2023-04-08T07:05:14;14.15;;;10.95;;
7031;SDS011;3557;48.880;8.328;2023-04-08T07:07:41;14.38;;;10.98;;
7031;SDS011;3557;48.880;8.328;2023-04-08T07:10:11;13.25;;;10.38;;
7031;SDS011;3557;48.880;8.328;2023-04-08T07:12:38;15.93;;;11.63;;
7031;SDS011;3557;48.880;8.328;2023-04-08T07:15:06;13.10;;;11.13;;
7031;SDS011;3557;48.880;8.328;2023-04-08T07:17:35;18.08;;;11.10;;
7031;SDS011;3557;48.880;8.328;2023-04-08T07:20:04;14.23;;;10.85;;
7031;SDS011;3557;48.880;8.328;2023-04-08T07:22:33;15.10;;;11.30;;
7031;SDS011;3557;48.880;8.328;2023-04-08T07:25:00;14.55;;;10.93;;
7031;SDS011;3557;48.880;8.328;2023-04-08T07:27:29;13.93;;;10.88;;
7031;SDS011;3557;48.880;8.328;2023-04-08T07:29:56;13.32;;;10.65;;
7031;SDS011;3557;48.880;8.328;2023-04-08T07:32:24;18.25;;;11.05;;
7031;SDS011;3557;48.880;8.328;2023-04-08T07:34:51;15.38;;;10.48;;
7031;SDS011;3557;48.880;8.328;2023-04-08T07:37:19;15.20;;;10.13;;
7031;SDS011;3557;48.880;8.328;2023-04-08T07:39:46;14.88;;;9.90;;
7031;SDS011;3557;48.880;8.328;2023-04-08T07:42:13;12.63;;;9.73;;
7031;SDS011;3557;48.880;8.328;2023-04-08T07:44:42;13.88;;;9.95;;
7031;SDS011;3557;48.880;8.328;2023-04-08T07:47:10;14.00;;;9.82;;
7031;SDS011;3557;48.880;8.328;2023-04-08T07:49:38;11.80;;;9.02;;
7031;SDS011;3557;48.880;8.328;2023-04-08T07:52:05;12.52;;;9.57;;
7031;SDS011;3557;48.880;8.328;2023-04-08T07:54:33;13.52;;;9.57;;
7031;SDS011;3557;48.880;8.328;2023-04-08T07:57:00;14.35;;;9.40;;
7031;SDS011;3557;48.880;8.328;2023-04-08T07:59:27;12.40;;;9.02;;
7031;SDS011;3557;48.880;8.328;2023-04-08T08:01:56;14.75;;;10.75;;
7031;SDS011;3557;48.880;8.328;2023-04-08T08:04:24;14.80;;;9.73;;
7031;SDS011;3557;48.880;8.328;2023-04-08T08:06:51;11.68;;;8.13;;
7031;SDS011;3557;48.880;8.328;2023-04-08T08:09:18;13.63;;;8.20;;
7031;SDS011;3557;48.880;8.328;2023-04-08T08:11:46;10.65;;;7.85;;
7031;SDS011;3557;48.880;8.328;2023-04-08T08:14:13;10.55;;;7.72;;
7031;SDS011;3557;48.880;8.328;2023-04-08T08:16:40;9.73;;;7.30;;
7031;SDS011;3557;48.880;8.328;2023-04-08T08:19:10;14.77;;;7.40;;
7031;SDS011;3557;48.880;8.328;2023-04-08T08:21:38;10.70;;;7.50;;
7031;SDS011;3557;48.880;8.328;2023-04-08T08:24:05;8.48;;;7.05;;
7031;SDS011;3557;48.880;8.328;2023-04-08T08:26:33;9.73;;;7.30;;
7031;SDS011;3557;48.880;8.328;2023-04-08T08:29:01;9.05;;;6.63;;
7031;SDS011;3557;48.880;8.328;2023-04-08T08:31:30;7.68;;;6.32;;
7031;SDS011;3557;48.880;8.328;2023-04-08T08:33:58;8.98;;;6.82;;
7031;SDS011;3557;48.880;8.328;2023-04-08T08:36:26;8.45;;;6.32;;
7031;SDS011;3557;48.880;8.328;2023-04-08T08:38:54;9.02;;;6.65;;
7031;SDS011;3557;48.880;8.328;2023-04-08T08:41:21;7.10;;;5.80;;
7031;SDS011;3557;48.880;8.328;2023-04-08T08:43:48;8.73;;;6.32;;
7031;SDS011;3557;48.880;8.328;2023-04-08T08:46:16;7.53;;;5.75;;
7031;SDS011;3557;48.880;8.328;2023-04-08T08:48:44;8.35;;;6.30;;
7031;SDS011;3557;48.880;8.328;2023-04-08T08:51:12;8.57;;;6.55;;
7031;SDS011;3557;48.880;8.328;2023-04-08T08:53:41;10.52;;;7.35;;
7031;SDS011;3557;48.880;8.328;2023-04-08T08:56:09;8.65;;;6.78;;
7031;SDS011;3557;48.880;8.328;2023-04-08T08:58:37;10.40;;;6.93;;
7031;SDS011;3557;48.880;8.328;2023-04-08T09:04:14;8.75;;;7.43;;
7031;SDS011;3557;48.880;8.328;2023-04-08T09:06:44;7.88;;;6.68;;
7031;SDS011;3557;48.880;8.328;2023-04-08T09:09:15;8.35;;;6.80;;
7031;SDS011;3557;48.880;8.328;2023-04-08T09:11:43;9.02;;;7.32;;
7031;SDS011;3557;48.880;8.328;2023-04-08T09:14:18;8.98;;;7.40;;
7031;SDS011;3557;48.880;8.328;2023-04-08T09:16:46;8.18;;;6.97;;
7031;SDS011;3557;48.880;8.328;2023-04-08T09:19:13;8.43;;;6.78;;
7031;SDS011;3557;48.880;8.328;2023-04-08T09:21:41;9.85;;;7.85;;
7031;SDS011;3557;48.880;8.328;2023-04-08T09:24:09;9.52;;;7.47;;
7031;SDS011;3557;48.880;8.328;2023-04-08T09:26:53;7.75;;;6.18;;
7031;SDS011;3557;48.880;8.328;2023-04-08T09:29:20;8.80;;;6.85;;
7031;SDS011;3557;48.880;8.328;2023-04-08T09:31:52;8.07;;;6.28;;
7031;SDS011;3557;48.880;8.328;2023-04-08T09:34:20;8.10;;;6.45;;
7031;SDS011;3557;48.880;8.328;2023-04-08T09:36:48;7.95;;;6.38;;
7031;SDS011;3557;48.880;8.328;2023-04-08T09:39:17;9.00;;;6.65;;
7031;SDS011;3557;48.880;8.328;2023-04-08T09:41:46;8.77;;;6.50;;
7031;SDS011;3557;48.880;8.328;2023-04-08T09:44:15;8.13;;;6.15;;
7031;SDS011;3557;48.880;8.328;2023-04-08T09:46:46;8.90;;;6.68;;
7031;SDS011;3557;48.880;8.328;2023-04-08T09:49:24;7.30;;;6.45;;
7031;SDS011;3557;48.880;8.328;2023-04-08T09:51:53;7.43;;;6.30;;
7031;SDS011;3557;48.880;8.328;2023-04-08T09:54:37;7.53;;;6.75;;
7031;SDS011;3557;48.880;8.328;2023-04-08T09:57:10;9.23;;;7.15;;
7031;SDS011;3557;48.880;8.328;2023-04-08T09:59:42;7.90;;;6.95;;
7031;SDS011;3557;48.880;8.328;2023-04-08T10:02:16;9.07;;;6.60;;
7031;SDS011;3557;48.880;8.328;2023-04-08T10:04:48;10.23;;;6.20;;
7031;SDS011;3557;48.880;8.328;2023-04-08T10:07:18;9.45;;;7.20;;
7031;SDS011;3557;48.880;8.328;2023-04-08T10:09:46;8.23;;;6.28;;
7031;SDS011;3557;48.880;8.328;2023-04-08T10:12:14;8.45;;;7.20;;
7031;SDS011;3557;48.880;8.328;2023-04-08T10:14:41;9.02;;;7.72;;
7031;SDS011;3557;48.880;8.328;2023-04-08T10:17:24;7.68;;;6.70;;
7031;SDS011;3557;48.880;8.328;2023-04-08T10:19:52;8.35;;;6.45;;
7031;SDS011;3557;48.880;8.328;2023-04-08T10:25:30;7.85;;;6.25;;
7031;SDS011;3557;48.880;8.328;2023-04-08T10:27:59;7.45;;;5.72;;
7031;SDS011;3557;48.880;8.328;2023-04-08T10:30:37;7.45;;;6.35;;
7031;SDS011;3557;48.880;8.328;2023-04-08T10:33:08;7.07;;;6.35;;
7031;SDS011;3557;48.880;8.328;2023-04-08T10:35:38;8.32;;;6.10;;
7031;SDS011;3557;48.880;8.328;2023-04-08T10:38:10;8.18;;;6.50;;
7031;SDS011;3557;48.880;8.328;2023-04-08T10:40:40;6.97;;;5.97;;
7031;SDS011;3557;48.880;8.328;2023-04-08T10:43:09;7.47;;;6.68;;
7031;SDS011;3557;48.880;8.328;2023-04-08T10:45:38;7.38;;;6.38;;
7031;SDS011;3557;48.880;8.328;2023-04-08T10:48:13;7.97;;;6.38;;
7031;SDS011;3557;48.880;8.328;2023-04-08T10:50:42;7.10;;;6.35;;
7031;SDS011;3557;48.880;8.328;2023-04-08T10:53:17;7.53;;;6.40;;
7031;SDS011;3557;48.880;8.328;2023-04-08T10:55:50;7.25;;;6.40;;
7031;SDS011;3557;48.880;8.328;2023-04-08T10:58:18;7.50;;;6.00;;
7031;SDS011;3557;48.880;8.328;2023-04-08T11:00:45;8.20;;;6.70;;
7031;SDS011;3557;48.880;8.328;2023-04-08T11:03:12;19.63;;;9.82;;
7031;SDS011;3557;48.880;8.328;2023-04-08T11:05:40;7.38;;;6.40;;
7031;SDS011;3557;48.880;8.328;2023-04-08T11:08:08;10.05;;;6.63;;
7031;SDS011;3557;48.880;8.328;2023-04-08T11:10:35;13.00;;;7.63;;
7031;SDS011;3557;48.880;8.328;2023-04-08T11:13:06;10.57;;;7.63;;
7031;SDS011;3557;48.880;8.328;2023-04-08T11:15:34;15.25;;;10.23;;
7031;SDS011;3557;48.880;8.328;2023-04-08T11:18:02;8.20;;;6.95;;
7031;SDS011;3557;48.880;8.328;2023-04-08T11:20:30;8.98;;;7.35;;
7031;SDS011;3557;48.880;8.328;2023-04-08T11:23:00;9.63;;;7.22;;
7031;SDS011;3557;48.880;8.328;2023-04-08T11:25:28;8.45;;;6.97;;
7031;SDS011;3557;48.880;8.328;2023-04-08T11:27:56;8.52;;;7.05;;
7031;SDS011;3557;48.880;8.328;2023-04-08T11:30:25;8.52;;;7.25;;
7031;SDS011;3557;48.880;8.328;2023-04-08T11:32:54;8.13;;;6.80;;
7031;SDS011;3557;48.880;8.328;2023-04-08T11:35:22;10.38;;;7.10;;
7031;SDS011;3557;48.880;8.328;2023-04-08T11:37:50;11.40;;;7.35;;
7031;SDS011;3557;48.880;8.328;2023-04-08T11:40:19;9.30;;;7.20;;
7031;SDS011;3557;48.880;8.328;2023-04-08T11:42:48;8.63;;;7.10;;
7031;SDS011;3557;48.880;8.328;2023-04-08T11:45:16;8.38;;;6.93;;
7031;SDS011;3557;48.880;8.328;2023-04-08T11:47:47;9.82;;;6.97;;
7031;SDS011;3557;48.880;8.328;2023-04-08T11:50:21;11.65;;;7.68;;
7031;SDS011;3557;48.880;8.328;2023-04-08T11:52:49;9.13;;;7.10;;
7031;SDS011;3557;48.880;8.328;2023-04-08T11:55:21;8.50;;;7.00;;
7031;SDS011;3557;48.880;8.328;2023-04-08T11:57:51;8.27;;;7.03;;
7031;SDS011;3557;48.880;8.328;2023-04-08T12:00:19;8.05;;;6.60;;
7031;SDS011;3557;48.880;8.328;2023-04-08T12:02:49;7.68;;;6.53;;
7031;SDS011;3557;48.880;8.328;2023-04-08T12:05:17;11.73;;;6.85;;
7031;SDS011;3557;48.880;8.328;2023-04-08T12:07:46;8.93;;;7.18;;
7031;SDS011;3557;48.880;8.328;2023-04-08T12:10:14;7.93;;;6.88;;
7031;SDS011;3557;48.880;8.328;2023-04-08T12:12:41;9.05;;;7.20;;
7031;SDS011;3557;48.880;8.328;2023-04-08T12:15:09;8.15;;;7.20;;
7031;SDS011;3557;48.880;8.328;2023-04-08T12:17:36;8.18;;;6.95;;
7031;SDS011;3557;48.880;8.328;2023-04-08T12:20:06;9.18;;;7.22;;
7031;SDS011;3557;48.880;8.328;2023-04-08T12:22:35;9.30;;;6.68;;
7031;SDS011;3557;48.880;8.328;2023-04-08T12:25:02;8.77;;;6.47;;
7031;SDS011;3557;48.880;8.328;2023-04-08T12:27:30;8.23;;;6.50;;
7031;SDS011;3557;48.880;8.328;2023-04-08T12:29:58;8.07;;;6.53;;
7031;SDS011;3557;48.880;8.328;2023-04-08T12:32:26;8.40;;;6.97;;
7031;SDS011;3557;48.880;8.328;2023-04-08T12:34:53;8.55;;;6.20;;
7031;SDS011;3557;48.880;8.328;2023-04-08T12:37:22;9.18;;;6.28;;
7031;SDS011;3557;48.880;8.328;2023-04-08T12:39:50;10.35;;;6.90;;
7031;SDS011;3557;48.880;8.328;2023-04-08T12:42:17;8.68;;;6.38;;
7031;SDS011;3557;48.880;8.328;2023-04-08T12:44:44;10.30;;;7.20;;
7031;SDS011;3557;48.880;8.328;2023-04-08T12:47:11;9.70;;;6.43;;
7031;SDS011;3557;48.880;8.328;2023-04-08T12:49:39;8.18;;;6.97;;
7031;SDS011;3557;48.880;8.328;2023-04-08T12:52:06;11.52;;;6.82;;
7031;SDS011;3557;48.880;8.328;2023-04-08T12:54:35;10.10;;;6.57;;
7031;SDS011;3557;48.880;8.328;2023-04-08T12:57:02;9.18;;;6.65;;
7031;SDS011;3557;48.880;8.328;2023-04-08T12:59:29;10.32;;;6.32;;
7031;SDS011;3557;48.880;8.328;2023-04-08T13:01:57;9.80;;;6.68;;
7031;SDS011;3557;48.880;8.328;2023-04-08T13:04:25;7.80;;;6.70;;
7031;SDS011;3557;48.880;8.328;2023-04-08T13:06:52;9.40;;;6.53;;
7031;SDS011;3557;48.880;8.328;2023-04-08T13:09:19;9.35;;;7.03;;
7031;SDS011;3557;48.880;8.328;2023-04-08T13:11:48;9.68;;;7.07;;
7031;SDS011;3557;48.880;8.328;2023-04-08T13:14:16;9.43;;;7.28;;
7031;SDS011;3557;48.880;8.328;2023-04-08T13:16:43;9.70;;;7.03;;
7031;SDS011;3557;48.880;8.328;2023-04-08T13:19:10;10.85;;;7.50;;
7031;SDS011;3557;48.880;8.328;2023-04-08T13:21:38;10.57;;;7.70;;
7031;SDS011;3557;48.880;8.328;2023-04-08T13:24:05;9.88;;;7.30;;
7031;SDS011;3557;48.880;8.328;2023-04-08T13:26:33;8.93;;;7.10;;
7031;SDS011;3557;48.880;8.328;2023-04-08T13:29:01;9.52;;;7.65;;
7031;SDS011;3557;48.880;8.328;2023-04-08T13:31:28;9.13;;;7.25;;
7031;SDS011;3557;48.880;8.328;2023-04-08T13:33:56;9.55;;;7.82;;
7031;SDS011;3557;48.880;8.328;2023-04-08T13:36:23;10.45;;;7.43;;
7031;SDS011;3557;48.880;8.328;2023-04-08T13:38:52;10.43;;;7.40;;
7031;SDS011;3557;48.880;8.328;2023-04-08T13:41:20;9.90;;;7.88;;
7031;SDS011;3557;48.880;8.328;2023-04-08T13:43:49;7.88;;;6.45;;
7031;SDS011;3557;48.880;8.328;2023-04-08T13:46:18;13.50;;;7.57;;
7031;SDS011;3557;48.880;8.328;2023-04-08T13:48:45;9.00;;;6.80;;
7031;SDS011;3557;48.880;8.328;2023-04-08T13:51:12;10.68;;;7.65;;
7031;SDS011;3557;48.880;8.328;2023-04-08T13:53:40;8.70;;;6.80;;
7031;SDS011;3557;48.880;8.328;2023-04-08T13:56:07;7.35;;;6.22;;
7031;SDS011;3557;48.880;8.328;2023-04-08T13:58:35;8.27;;;6.55;;
7031;SDS011;3557;48.880;8.328;2023-04-08T14:01:02;7.70;;;6.03;;
7031;SDS011;3557;48.880;8.328;2023-04-08T14:03:31;8.05;;;6.05;;
7031;SDS011;3557;48.880;8.328;2023-04-08T14:05:58;10.00;;;7.35;;
7031;SDS011;3557;48.880;8.328;2023-04-08T14:08:26;12.63;;;9.43;;
7031;SDS011;3557;48.880;8.328;2023-04-08T14:10:54;15.73;;;9.35;;
7031;SDS011;3557;48.880;8.328;2023-04-08T14:13:22;9.18;;;6.95;;
7031;SDS011;3557;48.880;8.328;2023-04-08T14:15:49;8.43;;;6.38;;
7031;SDS011;3557;48.880;8.328;2023-04-08T14:18:19;10.68;;;7.15;;
7031;SDS011;3557;48.880;8.328;2023-04-08T14:20:47;8.73;;;6.55;;
7031;SDS011;3557;48.880;8.328;2023-04-08T14:23:15;10.10;;;6.88;;
7031;SDS011;3557;48.880;8.328;2023-04-08T14:25:42;6.97;;;6.22;;
7031;SDS011;3557;48.880;8.328;2023-04-08T14:28:10;7.85;;;5.72;;
7031;SDS011;3557;48.880;8.328;2023-04-08T14:30:37;7.80;;;5.90;;
7031;SDS011;3557;48.880;8.328;2023-04-08T14:33:04;6.57;;;5.65;;
7031;SDS011;3557;48.880;8.328;2023-04-08T14:35:32;6.82;;;5.68;;
7031;SDS011;3557;48.880;8.328;2023-04-08T14:38:00;5.85;;;5.20;;
7031;SDS011;3557;48.880;8.328;2023-04-08T14:40:28;7.68;;;5.72;;
7031;SDS011;3557;48.880;8.328;2023-04-08T14:42:55;8.10;;;5.00;;
7031;SDS011;3557;48.880;8.328;2023-04-08T14:45:22;7.05;;;4.95;;
7031;SDS011;3557;48.880;8.328;2023-04-08T14:47:50;8.70;;;5.32;;
7031;SDS011;3557;48.880;8.328;2023-04-08T14:50:17;7.85;;;5.10;;
7031;SDS011;3557;48.880;8.328;2023-04-08T14:52:44;5.28;;;4.50;;
7031;SDS011;3557;48.880;8.328;2023-04-08T14:55:14;6.57;;;5.28;;
7031;SDS011;3557;48.880;8.328;2023-04-08T14:57:42;6.00;;;5.10;;
7031;SDS011;3557;48.880;8.328;2023-04-08T15:00:09;6.22;;;5.32;;
7031;SDS011;3557;48.880;8.328;2023-04-08T15:02:38;8.07;;;5.60;;
7031;SDS011;3557;48.880;8.328;2023-04-08T15:05:05;5.57;;;4.88;;
7031;SDS011;3557;48.880;8.328;2023-04-08T15:07:33;5.93;;;5.30;;
7031;SDS011;3557;48.880;8.328;2023-04-08T15:10:01;7.13;;;5.20;;
7031;SDS011;3557;48.880;8.328;2023-04-08T15:12:30;8.60;;;5.30;;
7031;SDS011;3557;48.880;8.328;2023-04-08T15:14:58;6.47;;;5.35;;
7031;SDS011;3557;48.880;8.328;2023-04-08T15:17:25;8.13;;;5.60;;